createdAt,value
2019-02-15T00:02:38.986Z,79.40
2019-02-15T00:07:44.246Z,79.87
2019-02-15T00:12:49.729Z,79.85
2019-02-15T00:18:20.554Z,80.24
2019-02-15T00:23:26.065Z,80.17
2019-02-15T00:28:31.452Z,80.58
2019-02-15T00:33:36.627Z,80.98
2019-02-15T00:38:41.834Z,81.71
2019-02-15T00:43:47.273Z,81.90
2019-02-15T00:48:52.708Z,81.64
2019-02-15T00:54:23.390Z,81.98
2019-02-15T00:59:42.208Z,81.77
2019-02-15T01:05:09.771Z,82.24
2019-02-15T01:10:29.614Z,82.20
2019-02-15T01:15:35.150Z,82.35
2019-02-15T01:20:40.570Z,82.24
2019-02-15T01:25:52.934Z,82.77
2019-02-15T01:31:16.028Z,83.04
2019-02-15T01:36:27.161Z,83.61
2019-02-15T01:41:38.989Z,83.54
2019-02-15T01:47:03.664Z,83.47
2019-02-15T01:52:09.170Z,83.52
2019-02-15T01:57:14.333Z,84.04
2019-02-15T02:02:20.210Z,84.13
2019-02-15T02:07:25.749Z,83.82
2019-02-15T02:12:30.864Z,84.10
2019-02-15T02:17:36.206Z,84.00
2019-02-15T02:22:41.592Z,84.11
2019-02-15T02:27:46.783Z,84.16
2019-02-15T02:32:51.990Z,84.58
2019-02-15T02:37:57.224Z,84.91
2019-02-15T02:43:02.391Z,84.93
2019-02-15T02:48:08.554Z,85.15
2019-02-15T02:53:14.074Z,85.15
2019-02-15T02:58:19.259Z,85.08
2019-02-15T03:03:24.542Z,85.71
2019-02-15T03:08:31.187Z,85.43
2019-02-15T03:13:36.990Z,85.54
2019-02-15T03:18:42.486Z,85.66
2019-02-15T03:23:47.684Z,85.93
2019-02-15T03:28:52.839Z,85.94
2019-02-15T03:33:57.940Z,86.08
2019-02-15T03:39:13.231Z,85.98
2019-02-15T03:44:22.226Z,86.21
2019-02-15T03:49:25.946Z,86.32
2019-02-15T03:54:33.879Z,86.49
2019-02-15T03:59:39.600Z,86.56
2019-02-15T04:04:45.929Z,86.91
2019-02-15T04:09:51.409Z,87.08
2019-02-15T04:14:56.995Z,87.22
2019-02-15T04:20:02.182Z,87.25
2019-02-15T04:25:07.432Z,87.74
2019-02-15T04:30:12.610Z,88.26
2019-02-15T04:35:18.642Z,88.06
2019-02-15T04:40:24.875Z,87.86
2019-02-15T04:45:30.139Z,88.11
2019-02-15T04:50:35.327Z,88.25
2019-02-15T04:55:41.758Z,88.50
2019-02-15T05:00:47.031Z,88.19
2019-02-15T05:05:53.059Z,87.96
2019-02-15T05:10:58.557Z,87.97
2019-02-15T05:16:05.622Z,88.49
2019-02-15T05:21:12.786Z,88.97
2019-02-15T05:26:17.851Z,88.72
2019-02-15T05:31:23.326Z,89.06
2019-02-15T05:36:28.556Z,89.14
2019-02-15T05:41:34.205Z,89.08
2019-02-15T05:46:39.472Z,89.04
2019-02-15T05:51:44.672Z,88.69
2019-02-15T05:56:52.015Z,88.61
2019-02-15T06:01:58.533Z,88.88
2019-02-15T06:07:05.345Z,88.57
2019-02-15T06:12:10.544Z,88.70
2019-02-15T06:17:19.561Z,88.89
2019-02-15T06:22:26.158Z,88.95
2019-02-15T06:27:31.671Z,88.81
2019-02-15T06:32:37.232Z,89.20
2019-02-15T06:37:42.463Z,89.19
2019-02-15T06:42:47.687Z,88.90
2019-02-15T06:47:53.572Z,89.11
2019-02-15T06:52:59.060Z,89.68
2019-02-15T06:58:05.506Z,89.66
2019-02-15T07:03:19.209Z,89.32
2019-02-15T07:08:24.786Z,89.49
2019-02-15T07:13:31.143Z,89.03
2019-02-15T07:18:37.059Z,88.86
2019-02-15T07:23:43.220Z,88.57
2019-02-15T07:28:48.418Z,88.52
2019-02-15T07:33:54.593Z,88.56
2019-02-15T07:38:59.814Z,88.44
2019-02-15T07:44:06.095Z,87.78
2019-02-15T07:49:11.624Z,87.44
2019-02-15T07:54:16.816Z,87.42
2019-02-15T07:59:22.342Z,87.36
2019-02-15T08:04:27.827Z,87.09
2019-02-15T08:09:33.017Z,86.75
2019-02-15T08:14:38.277Z,86.58
2019-02-15T08:19:43.464Z,86.17
2019-02-15T08:24:49.729Z,85.77
2019-02-15T08:29:55.926Z,84.99
2019-02-15T08:35:01.942Z,84.01
2019-02-15T08:40:08.172Z,82.32
2019-02-15T08:45:13.489Z,81.78
2019-02-15T08:50:19.059Z,81.23
2019-02-15T08:55:24.562Z,81.11
2019-02-15T09:00:29.748Z,80.66
2019-02-15T09:05:35.255Z,80.17
2019-02-15T09:10:40.440Z,79.36
2019-02-15T09:15:46.269Z,79.77
2019-02-15T09:20:51.777Z,78.94
2019-02-15T09:25:56.963Z,78.00
2019-02-15T09:31:02.149Z,77.47
2019-02-15T09:36:07.369Z,75.81
2019-02-15T09:41:12.926Z,75.25
2019-02-15T09:46:20.253Z,75.63
2019-02-15T09:51:25.028Z,74.61
2019-02-15T09:56:30.371Z,73.85
2019-02-15T10:01:35.695Z,69.47
2019-02-15T10:06:41.242Z,71.52
2019-02-15T10:11:46.723Z,71.26
2019-02-15T10:16:51.998Z,70.45
2019-02-15T10:21:57.596Z,68.19
2019-02-15T10:27:02.789Z,68.03
2019-02-15T10:32:08.080Z,67.42
2019-02-15T10:37:13.316Z,67.67
2019-02-15T10:42:18.496Z,67.74
2019-02-15T10:47:25.286Z,67.02
2019-02-15T10:52:30.812Z,66.12
2019-02-15T10:57:36.059Z,66.20
2019-02-15T11:02:41.377Z,63.65
2019-02-15T11:07:47.525Z,63.28
2019-02-15T11:12:52.798Z,62.94
2019-02-15T11:17:58.051Z,62.27
2019-02-15T11:23:03.579Z,61.50
2019-02-15T11:28:08.777Z,58.58
2019-02-15T11:33:14.046Z,58.28
2019-02-15T11:38:19.339Z,56.61
2019-02-15T11:43:24.618Z,56.40
2019-02-15T11:48:29.886Z,55.13
2019-02-15T11:53:35.168Z,53.39
2019-02-15T11:58:40.766Z,52.71
2019-02-15T12:03:46.075Z,52.89
2019-02-15T12:08:51.840Z,50.34
2019-02-15T12:13:58.679Z,48.72
2019-02-15T12:19:04.016Z,48.87
2019-02-15T12:24:10.054Z,48.42
2019-02-15T12:29:15.300Z,49.41
2019-02-15T12:34:20.609Z,47.63
2019-02-15T12:39:25.918Z,47.50
2019-02-15T12:44:31.193Z,44.04
2019-02-15T12:49:36.481Z,44.28
2019-02-15T12:54:42.368Z,43.26
2019-02-15T12:59:48.943Z,42.92
2019-02-15T13:04:54.286Z,44.97
2019-02-15T13:10:00.261Z,45.45
2019-02-15T13:15:06.981Z,47.03
2019-02-15T13:20:12.552Z,47.31
2019-02-15T13:25:17.838Z,46.67
2019-02-15T13:30:23.102Z,43.09
2019-02-15T13:35:29.037Z,44.85
2019-02-15T13:40:34.342Z,40.59
2019-02-15T13:45:39.639Z,40.60
2019-02-15T13:50:46.205Z,40.37
2019-02-15T13:55:51.472Z,39.50
2019-02-15T14:00:57.529Z,39.61
2019-02-15T14:06:03.131Z,40.46
2019-02-15T14:11:08.443Z,39.26
2019-02-15T14:16:13.714Z,38.92
2019-02-15T14:21:19.414Z,40.09
2019-02-15T14:26:24.689Z,40.33
2019-02-15T14:31:29.973Z,42.07
2019-02-15T14:36:35.402Z,39.20
2019-02-15T14:41:41.017Z,39.39
2019-02-15T14:46:46.302Z,40.05
2019-02-15T14:51:51.866Z,41.35
2019-02-15T14:56:57.441Z,38.13
2019-02-15T15:02:03.064Z,40.75
2019-02-15T15:07:08.325Z,38.79
2019-02-15T15:12:13.615Z,39.02
2019-02-15T15:17:18.905Z,34.70
2019-02-15T15:22:24.207Z,39.20
2019-02-15T15:27:29.499Z,37.55
2019-02-15T15:32:34.778Z,38.58
2019-02-15T15:37:40.500Z,39.40
2019-02-15T15:42:45.829Z,41.45
2019-02-15T15:47:51.097Z,42.61
2019-02-15T15:52:56.410Z,42.71
2019-02-15T15:58:02.661Z,43.54
2019-02-15T16:03:08.020Z,43.54
2019-02-15T16:08:13.507Z,43.85
2019-02-15T16:13:18.905Z,44.99
2019-02-15T16:18:32.894Z,44.86
2019-02-15T16:23:31.678Z,45.66
2019-02-15T16:28:36.943Z,46.85
2019-02-15T16:33:42.579Z,48.38
2019-02-15T16:38:47.881Z,50.73
2019-02-15T16:43:53.196Z,51.13
2019-02-15T16:48:58.471Z,51.32
2019-02-15T16:54:04.108Z,50.55
2019-02-15T16:59:09.377Z,51.13
2019-02-15T17:04:14.887Z,51.35
2019-02-15T17:09:20.721Z,51.37
2019-02-15T17:14:26.077Z,51.38
2019-02-15T17:19:31.414Z,50.80
2019-02-15T17:24:36.757Z,51.27
2019-02-15T17:29:42.152Z,51.32
2019-02-15T17:34:48.848Z,52.03
2019-02-15T17:39:54.143Z,52.00
2019-02-15T17:45:00.441Z,52.56
2019-02-15T17:50:06.168Z,52.46
2019-02-15T17:55:11.780Z,52.67
2019-02-15T18:00:18.955Z,53.03
2019-02-15T18:05:24.221Z,53.20
2019-02-15T18:10:30.368Z,53.75
2019-02-15T18:15:35.971Z,53.86
2019-02-15T18:20:41.543Z,54.42
2019-02-15T18:25:46.810Z,54.65
2019-02-15T18:30:52.180Z,54.62
2019-02-15T18:35:58.281Z,54.92
2019-02-15T18:41:13.101Z,55.00
2019-02-15T18:46:10.990Z,55.77
2019-02-15T18:51:16.287Z,55.70
2019-02-15T18:56:21.566Z,55.90
2019-02-15T19:01:26.876Z,55.56
2019-02-15T19:06:32.655Z,56.51
2019-02-15T19:11:38.214Z,57.37
2019-02-15T19:16:43.936Z,57.66
2019-02-15T19:21:49.550Z,57.27
2019-02-15T19:26:55.580Z,56.76
2019-02-15T19:32:03.574Z,56.73
2019-02-15T19:37:10.037Z,56.82
2019-02-15T19:42:20.199Z,57.00
2019-02-15T19:47:25.537Z,57.48
2019-02-15T19:52:30.801Z,58.00
2019-02-15T19:57:37.114Z,58.58
2019-02-15T20:02:43.466Z,58.41
2019-02-15T20:07:48.781Z,58.06
2019-02-15T20:12:55.618Z,58.76
2019-02-15T20:18:02.069Z,58.87
2019-02-15T20:23:07.343Z,59.37
2019-02-15T20:28:14.340Z,59.58
2019-02-15T20:33:20.185Z,60.00
2019-02-15T20:38:25.626Z,60.16
2019-02-15T20:43:30.892Z,59.56
2019-02-15T20:48:36.213Z,59.05
2019-02-15T20:53:41.794Z,59.46
2019-02-15T20:58:47.329Z,59.68
2019-02-15T21:03:52.522Z,59.11
2019-02-15T21:08:59.618Z,58.44
2019-02-15T21:14:06.064Z,58.01
2019-02-15T21:19:11.332Z,58.02
2019-02-15T21:24:16.914Z,57.68
2019-02-15T21:29:22.107Z,57.62
2019-02-15T21:34:28.411Z,57.22
2019-02-15T21:39:34.695Z,56.21
2019-02-15T21:44:41.389Z,56.79
2019-02-15T21:49:46.574Z,56.99
2019-02-15T21:54:52.205Z,58.10
2019-02-15T21:59:57.681Z,58.25
2019-02-15T22:05:03.668Z,58.16
2019-02-15T22:10:09.468Z,57.30
2019-02-15T22:15:14.657Z,57.52
2019-02-15T22:20:26.820Z,58.18
2019-02-15T22:25:27.508Z,57.75
2019-02-15T22:30:32.798Z,57.99
2019-02-15T22:35:38.403Z,58.22
2019-02-15T22:40:44.863Z,58.09
2019-02-15T22:45:51.216Z,57.90
2019-02-15T22:50:56.822Z,57.94
2019-02-15T22:56:02.001Z,59.39
2019-02-15T23:01:18.472Z,60.94
2019-02-15T23:06:23.669Z,61.98
2019-02-15T23:11:28.974Z,62.75
2019-02-15T23:16:34.161Z,62.42
2019-02-15T23:21:39.635Z,62.54
2019-02-15T23:26:45.162Z,63.05
2019-02-15T23:31:50.371Z,62.71
2019-02-15T23:36:56.229Z,62.62
2019-02-15T23:42:01.566Z,63.28
2019-02-15T23:47:07.529Z,64.42
2019-02-15T23:52:13.123Z,63.91
2019-02-15T23:57:18.304Z,64.45
